Time;durP1;ratioP1;P1;durP2;ratioP2;P2;SDS_P1;SDS_P2;PMS_P1;PMS_P2;Temp;Humidity;BMP_temperature;BMP_pressure;BME280_temperature;BME280_humidity;BME280_pressure;Samples;Min_cycle;Max_cycle;Signal;HPM_P1;HPM_P2
2024/02/07 00:00:55;;;;;;;4.93;2.50;;;9.00;99.90;;;;;;5025447;28;20017;-86
2024/02/07 00:03:20;;;;;;;4.80;2.28;;;8.90;99.90;;;;;;5025299;28;20072;-88
2024/02/07 00:05:47;;;;;;;6.30;2.13;;;8.90;99.90;;;;;;5031507;28;20127;-87
2024/02/07 00:08:13;;;;;;;5.45;2.20;;;8.90;99.90;;;;;;5022124;28;20025;-86
2024/02/07 00:10:38;;;;;;;6.07;2.80;;;9.00;99.90;;;;;;5026407;28;20022;-88
2024/02/07 00:13:04;;;;;;;4.22;2.72;;;8.90;99.90;;;;;;5042750;28;20112;-87
2024/02/07 00:15:30;;;;;;;4.28;2.60;;;8.90;99.90;;;;;;5034101;28;20022;-87
2024/02/07 00:17:56;;;;;;;4.82;2.35;;;8.90;99.90;;;;;;5033375;28;20029;-86
2024/02/07 00:20:22;;;;;;;3.90;2.47;;;8.90;99.90;;;;;;5025223;28;20022;-86
2024/02/07 00:22:47;;;;;;;3.05;2.00;;;8.90;99.90;;;;;;5035467;28;20396;-88
2024/02/07 00:25:13;;;;;;;3.63;2.00;;;8.90;99.90;;;;;;5021860;28;20048;-87
2024/02/07 00:27:39;;;;;;;5.03;2.35;;;8.90;99.90;;;;;;5023562;28;20087;-88
2024/02/07 00:30:05;;;;;;;3.38;1.58;;;8.90;99.90;;;;;;5032732;28;20029;-88
2024/02/07 00:32:31;;;;;;;5.43;1.75;;;8.90;99.90;;;;;;5019550;28;20087;-88
2024/02/07 00:34:57;;;;;;;4.40;2.10;;;8.90;99.90;;;;;;5034184;28;20100;-88
2024/02/07 00:37:22;;;;;;;5.93;2.40;;;8.90;99.90;;;;;;5027349;28;20017;-87
2024/02/07 00:39:48;;;;;;;4.25;2.17;;;8.90;99.90;;;;;;5034490;28;20113;-86
2024/02/07 00:42:13;;;;;;;3.85;1.98;;;8.90;99.90;;;;;;5037572;28;20079;-87
2024/02/07 00:44:39;;;;;;;3.15;2.00;;;8.90;99.90;;;;;;5026314;28;20080;-87
2024/02/07 00:47:05;;;;;;;6.82;1.90;;;8.90;99.90;;;;;;5033361;28;20109;-87
2024/02/07 00:49:31;;;;;;;6.00;2.15;;;8.90;99.90;;;;;;5020667;28;20117;-87
2024/02/07 00:51:57;;;;;;;3.08;1.95;;;8.90;99.90;;;;;;5026214;28;20101;-87
2024/02/07 00:54:24;;;;;;;3.20;1.67;;;8.90;99.90;;;;;;5030001;28;20062;-88
2024/02/07 00:56:50;;;;;;;6.70;2.50;;;8.90;99.90;;;;;;5026216;28;20029;-87
2024/02/07 00:59:15;;;;;;;4.60;2.30;;;8.90;99.90;;;;;;5030649;28;20398;-87
2024/02/07 01:01:41;;;;;;;5.55;1.65;;;8.90;99.90;;;;;;5024259;28;20033;-88
2024/02/07 01:04:06;;;;;;;7.10;2.33;;;8.90;99.90;;;;;;5031828;28;20041;-88
2024/02/07 01:06:32;;;;;;;5.80;2.10;;;8.90;99.90;;;;;;5019232;28;20523;-89
2024/02/07 01:08:57;;;;;;;2.85;1.48;;;8.90;99.90;;;;;;5031907;28;20048;-87
2024/02/07 01:11:23;;;;;;;8.15;2.08;;;8.90;99.90;;;;;;5028042;28;20507;-88
2024/02/07 01:13:49;;;;;;;4.72;2.00;;;8.90;99.90;;;;;;5031879;28;20030;-87
2024/02/07 01:16:15;;;;;;;3.08;1.77;;;8.90;99.90;;;;;;5033186;28;20029;-86
2024/02/07 01:18:41;;;;;;;3.65;2.17;;;8.90;99.90;;;;;;5030326;28;20041;-87
2024/02/07 01:21:09;;;;;;;6.57;2.13;;;8.90;99.90;;;;;;5026192;28;20025;-87
2024/02/07 01:23:38;;;;;;;2.75;2.08;;;8.90;99.90;;;;;;5023568;28;20073;-87
2024/02/07 01:26:04;;;;;;;3.50;1.70;;;8.90;99.90;;;;;;5029770;28;20017;-87
2024/02/07 01:28:29;;;;;;;3.38;1.90;;;8.90;99.90;;;;;;5029685;28;20035;-87
2024/02/07 01:30:55;;;;;;;3.85;1.88;;;8.90;99.90;;;;;;5027149;28;20159;-87
2024/02/07 01:33:21;;;;;;;3.05;1.85;;;8.90;99.90;;;;;;5028959;28;20041;-88
2024/02/07 01:35:46;;;;;;;5.13;2.30;;;8.90;99.90;;;;;;5034283;28;20133;-87
2024/02/07 01:38:17;;;;;;;3.83;2.10;;;8.90;99.90;;;;;;5035036;28;20029;-87
2024/02/07 01:40:48;;;;;;;4.03;1.95;;;8.90;99.90;;;;;;5048427;28;20021;-86
2024/02/07 01:43:14;;;;;;;4.10;1.67;;;8.90;99.90;;;;;;5041392;28;20027;-87
2024/02/07 01:45:40;;;;;;;4.07;2.05;;;8.90;99.90;;;;;;5029657;28;20116;-87
2024/02/07 01:48:07;;;;;;;3.70;1.88;;;8.90;99.90;;;;;;5042565;28;20021;-87
2024/02/07 01:50:36;;;;;;;2.53;1.95;;;8.90;99.90;;;;;;5030275;28;20021;-87
2024/02/07 01:53:03;;;;;;;4.43;2.08;;;8.90;99.90;;;;;;5030384;28;20018;-86
2024/02/07 01:55:30;;;;;;;2.28;1.55;;;8.90;99.90;;;;;;5027815;28;20033;-87
2024/02/07 01:57:57;;;;;;;5.25;2.13;;;8.90;99.90;;;;;;5025839;28;20022;-87
2024/02/07 02:00:23;;;;;;;2.97;1.83;;;8.90;99.90;;;;;;5034661;28;20071;-88
2024/02/07 02:02:52;;;;;;;4.20;1.80;;;8.90;99.90;;;;;;5045081;28;20484;-87
2024/02/07 02:05:17;;;;;;;5.32;2.28;;;8.90;99.90;;;;;;5032457;28;20025;-87
2024/02/07 02:07:44;;;;;;;4.57;2.22;;;8.90;99.90;;;;;;5022133;28;20109;-86
2024/02/07 02:10:11;;;;;;;2.42;1.70;;;8.90;99.90;;;;;;5039948;28;20119;-87
2024/02/07 02:12:37;;;;;;;3.30;1.65;;;8.80;99.90;;;;;;5032028;28;20065;-87
2024/02/07 02:15:05;;;;;;;2.88;1.60;;;8.80;99.90;;;;;;5029781;28;20113;-86
2024/02/07 02:17:30;;;;;;;8.35;2.40;;;8.80;99.90;;;;;;5028191;28;20028;-86
2024/02/07 02:19:57;;;;;;;3.45;1.90;;;8.80;99.90;;;;;;5028647;28;20025;-86
2024/02/07 02:22:32;;;;;;;7.85;2.47;;;8.90;99.90;;;;;;5040885;28;20160;-86
2024/02/07 02:24:57;;;;;;;8.18;2.15;;;8.90;99.90;;;;;;5047716;28;20441;-87
2024/02/07 02:27:46;;;;;;;3.83;2.00;;;8.90;99.90;;;;;;5038164;28;20601;-86
2024/02/07 02:30:19;;;;;;;5.82;2.50;;;8.90;99.90;;;;;;5039223;28;20025;-86
2024/02/07 02:32:48;;;;;;;3.88;2.10;;;8.90;99.90;;;;;;5027080;28;20029;-86
2024/02/07 02:35:18;;;;;;;4.80;2.03;;;8.80;99.90;;;;;;5037576;28;20071;-88
2024/02/07 02:37:45;;;;;;;4.00;2.15;;;8.80;99.90;;;;;;5032537;28;20032;-87
2024/02/07 02:40:11;;;;;;;4.72;2.15;;;8.80;99.90;;;;;;5025494;28;20241;-87
2024/02/07 02:42:37;;;;;;;5.88;2.67;;;8.80;99.90;;;;;;5026138;28;20113;-87
2024/02/07 02:45:03;;;;;;;8.68;2.67;;;8.80;99.90;;;;;;5025677;28;20526;-86
2024/02/07 02:47:29;;;;;;;2.45;1.95;;;8.80;99.90;;;;;;5031486;28;20021;-86
2024/02/07 02:49:55;;;;;;;7.80;2.60;;;8.80;99.90;;;;;;5021267;28;20022;-87
2024/02/07 02:52:22;;;;;;;4.30;2.42;;;8.80;99.90;;;;;;5031300;28;20032;-87
2024/02/07 02:54:49;;;;;;;6.45;2.10;;;8.90;99.90;;;;;;5035601;28;20084;-85
2024/02/07 02:57:16;;;;;;;7.63;2.78;;;8.90;99.90;;;;;;5031157;28;20507;-86
2024/02/07 02:59:43;;;;;;;10.93;2.20;;;8.90;99.90;;;;;;5027653;28;20041;-87
2024/02/07 03:02:09;;;;;;;8.10;2.97;;;8.90;99.90;;;;;;5036217;28;20116;-88
2024/02/07 03:04:44;;;;;;;4.82;2.60;;;8.90;99.90;;;;;;5034820;28;20577;-86
2024/02/07 03:07:35;;;;;;;5.30;1.95;;;8.80;99.90;;;;;;5031844;28;20028;-87
2024/02/07 03:09:58;;;;;;;5.05;1.98;;;8.80;99.90;;;;;;5024859;28;20024;-87
2024/02/07 03:12:25;;;;;;;3.85;2.28;;;8.80;99.90;;;;;;5026144;28;20021;-86
2024/02/07 03:14:50;;;;;;;3.28;2.30;;;8.80;99.90;;;;;;5029091;28;20022;-86
2024/02/07 03:17:16;;;;;;;3.78;2.47;;;8.80;99.90;;;;;;5029313;28;20031;-86
2024/02/07 03:19:42;;;;;;;4.22;2.20;;;8.80;99.90;;;;;;5030528;28;20061;-87
2024/02/07 03:22:07;;;;;;;5.32;2.03;;;8.80;99.90;;;;;;5029300;28;20030;-87
2024/02/07 03:24:33;;;;;;;5.78;2.45;;;8.90;99.90;;;;;;5036746;28;20022;-86
2024/02/07 03:26:59;;;;;;;5.47;2.40;;;8.80;99.90;;;;;;5027963;28;20745;-86
2024/02/07 03:29:26;;;;;;;4.25;2.47;;;8.90;99.90;;;;;;5029471;28;20125;-86
2024/02/07 03:31:53;;;;;;;6.20;2.33;;;8.90;99.90;;;;;;5021757;28;20403;-86
2024/02/07 03:34:20;;;;;;;2.92;2.05;;;8.90;99.90;;;;;;5029212;28;20171;-87
2024/02/07 03:36:46;;;;;;;9.25;2.90;;;8.90;99.90;;;;;;5031015;28;20025;-86
2024/02/07 03:39:13;;;;;;;4.40;2.67;;;8.90;99.90;;;;;;5031270;28;20384;-86
2024/02/07 03:41:41;;;;;;;6.13;2.22;;;8.90;99.90;;;;;;5022718;28;20044;-86
2024/02/07 03:44:10;;;;;;;5.15;2.65;;;8.90;99.90;;;;;;5027190;28;20029;-87
2024/02/07 03:46:37;;;;;;;6.53;2.57;;;8.90;99.90;;;;;;5039712;28;20018;-86
2024/02/07 03:49:03;;;;;;;6.15;2.70;;;8.80;99.90;;;;;;5024456;28;20013;-87
2024/02/07 03:51:28;;;;;;;4.40;2.85;;;8.80;99.90;;;;;;5031918;28;20017;-87
2024/02/07 03:53:54;;;;;;;4.38;2.47;;;8.80;99.90;;;;;;5029802;28;20018;-88
2024/02/07 03:56:20;;;;;;;6.10;2.50;;;8.80;99.90;;;;;;5037036;28;20032;-86
2024/02/07 03:58:46;;;;;;;6.40;2.65;;;8.90;99.90;;;;;;5029150;28;20022;-87
2024/02/07 04:01:15;;;;;;;7.85;2.45;;;8.90;99.90;;;;;;5030930;28;20032;-87
2024/02/07 04:03:41;;;;;;;6.55;2.17;;;8.90;99.90;;;;;;5028745;28;20450;-85
2024/02/07 04:06:06;;;;;;;7.25;2.30;;;8.80;99.90;;;;;;5027950;28;20079;-87
2024/02/07 04:08:34;;;;;;;9.52;2.30;;;8.90;99.90;;;;;;5029547;28;20013;-86
2024/02/07 04:11:01;;;;;;;5.90;2.70;;;8.90;99.90;;;;;;5029169;28;20569;-86
2024/02/07 05:16:11;;;;;;;5.15;2.17;;;8.70;99.90;;;;;;5027368;28;20060;-85
2024/02/07 05:18:37;;;;;;;4.15;2.60;;;8.70;99.90;;;;;;5027355;28;20547;-85
2024/02/07 05:21:03;;;;;;;2.88;2.35;;;8.70;99.90;;;;;;5029263;28;20124;-86
2024/02/07 05:23:28;;;;;;;5.18;2.65;;;8.70;99.90;;;;;;5026339;28;20092;-87
2024/02/07 05:25:56;;;;;;;4.60;2.60;;;8.70;99.90;;;;;;5021240;28;20018;-86
2024/02/07 05:28:22;;;;;;;4.03;2.20;;;8.70;99.90;;;;;;5026536;28;20021;-87
2024/02/07 05:30:48;;;;;;;3.63;2.25;;;8.70;99.90;;;;;;5029936;28;20078;-87
2024/02/07 05:33:13;;;;;;;3.30;2.08;;;8.70;99.90;;;;;;5028362;28;20025;-85
2024/02/07 05:35:39;;;;;;;4.53;2.75;;;8.70;99.90;;;;;;5022091;28;20481;-86
2024/02/07 05:38:04;;;;;;;3.58;2.55;;;8.70;99.90;;;;;;5029298;28;20380;-86
2024/02/07 05:40:30;;;;;;;3.05;2.33;;;8.70;99.90;;;;;;5027192;28;20070;-86
2024/02/07 05:42:56;;;;;;;4.35;2.72;;;8.70;99.90;;;;;;5027379;28;20026;-85
2024/02/07 05:45:21;;;;;;;4.80;2.55;;;8.70;99.90;;;;;;5029237;28;20026;-86
2024/02/07 05:47:47;;;;;;;6.97;2.50;;;8.70;99.90;;;;;;5040411;28;20048;-87
2024/02/07 05:50:15;;;;;;;4.82;2.65;;;8.70;99.90;;;;;;5024563;28;20045;-85
2024/02/07 05:52:40;;;;;;;4.18;2.45;;;8.70;99.90;;;;;;5029595;28;20017;-85
2024/02/07 05:55:07;;;;;;;4.65;2.72;;;8.70;99.90;;;;;;5027779;28;20041;-87
2024/02/07 05:57:33;;;;;;;7.53;3.03;;;8.60;99.90;;;;;;5023352;28;20080;-85
2024/02/07 05:59:59;;;;;;;6.13;3.28;;;8.70;99.90;;;;;;5030625;28;20041;-86
2024/02/07 06:02:25;;;;;;;5.20;2.88;;;8.60;99.90;;;;;;5031878;28;20011;-87
2024/02/07 06:04:51;;;;;;;4.07;2.60;;;8.60;99.90;;;;;;5030702;28;20052;-86
2024/02/07 06:07:17;;;;;;;4.38;2.88;;;8.60;99.90;;;;;;5031538;28;20078;-87
2024/02/07 06:09:45;;;;;;;7.68;2.85;;;8.60;99.90;;;;;;5029117;28;20025;-87
2024/02/07 06:12:11;;;;;;;7.30;3.10;;;8.60;99.90;;;;;;5023185;28;20017;-86
2024/02/07 06:14:37;;;;;;;5.45;2.85;;;8.60;99.90;;;;;;5021895;28;20021;-87
2024/02/07 06:17:02;;;;;;;10.27;2.75;;;8.60;99.90;;;;;;5024408;28;20037;-85
2024/02/07 06:19:28;;;;;;;5.25;2.42;;;8.60;99.90;;;;;;5027686;28;20026;-86
2024/02/07 06:21:54;;;;;;;8.15;3.17;;;8.70;99.90;;;;;;5026559;28;20018;-86
2024/02/07 06:24:19;;;;;;;4.57;2.97;;;8.60;99.90;;;;;;5033486;28;20376;-86
2024/02/07 06:26:45;;;;;;;6.53;3.28;;;8.60;99.90;;;;;;5018959;28;20475;-85
2024/02/07 06:29:10;;;;;;;7.40;3.30;;;8.60;99.90;;;;;;5029995;28;20033;-85
2024/02/07 06:31:36;;;;;;;7.43;3.20;;;8.60;99.90;;;;;;5033201;28;20032;-86
2024/02/07 06:34:03;;;;;;;7.28;3.10;;;8.70;99.90;;;;;;5023678;28;20034;-86
2024/02/07 06:36:29;;;;;;;8.10;3.13;;;8.70;99.90;;;;;;5034492;28;20057;-86
2024/02/07 06:38:54;;;;;;;10.02;2.88;;;8.60;99.90;;;;;;5034464;28;20056;-85
2024/02/07 06:41:20;;;;;;;8.25;2.90;;;8.60;99.90;;;;;;5028337;28;20018;-85
2024/02/07 06:43:46;;;;;;;7.05;3.42;;;8.60;99.90;;;;;;5035981;28;20029;-86
2024/02/07 06:46:11;;;;;;;7.78;2.85;;;8.60;99.90;;;;;;5025942;28;20050;-86
2024/02/07 06:48:37;;;;;;;7.40;2.88;;;8.70;99.90;;;;;;5031896;28;20387;-86
2024/02/07 06:51:02;;;;;;;7.97;3.22;;;8.60;99.90;;;;;;5028792;28;20420;-85
2024/02/07 06:53:28;;;;;;;8.63;3.60;;;8.60;99.90;;;;;;5030563;28;20493;-86
2024/02/07 06:55:53;;;;;;;8.25;2.95;;;8.60;99.90;;;;;;5026515;28;20026;-86
2024/02/07 06:58:19;;;;;;;4.72;3.05;;;8.60;99.90;;;;;;5028169;28;20025;-87
2024/02/07 07:00:44;;;;;;;7.50;3.15;;;8.60;99.90;;;;;;5031944;28;20021;-85
2024/02/07 07:03:10;;;;;;;4.50;2.60;;;8.60;99.90;;;;;;5031992;28;20155;-85
2024/02/07 07:05:35;;;;;;;6.95;2.95;;;8.60;99.90;;;;;;5026306;28;20029;-86
2024/02/07 07:08:01;;;;;;;7.05;3.33;;;8.60;99.90;;;;;;5024813;28;20491;-86
2024/02/07 07:10:26;;;;;;;10.88;3.70;;;8.60;99.90;;;;;;5030299;28;20031;-88
2024/02/07 07:12:52;;;;;;;6.72;3.30;;;8.70;99.90;;;;;;5025707;28;20485;-85
2024/02/07 07:15:20;;;;;;;6.63;3.20;;;8.60;99.90;;;;;;5031523;28;20017;-85
2024/02/07 07:17:46;;;;;;;9.00;3.40;;;8.70;99.90;;;;;;5031819;28;20017;-86
2024/02/07 07:20:11;;;;;;;9.27;3.50;;;8.70;99.90;;;;;;5029790;28;20101;-86
2024/02/07 07:22:37;;;;;;;7.35;3.10;;;8.70;99.90;;;;;;5026180;28;20021;-86
2024/02/07 07:25:03;;;;;;;9.20;3.70;;;8.70;99.90;;;;;;5024882;28;20048;-86
2024/02/07 07:27:30;;;;;;;9.95;3.95;;;8.70;99.90;;;;;;5031922;28;20025;-85
2024/02/07 07:29:56;;;;;;;7.68;3.55;;;8.70;99.90;;;;;;5034903;28;20542;-86
2024/02/07 07:32:21;;;;;;;6.63;3.47;;;8.70;99.90;;;;;;5033876;28;20116;-86
2024/02/07 07:34:47;;;;;;;7.20;3.05;;;8.70;99.90;;;;;;5032506;28;20025;-86
2024/02/07 07:37:13;;;;;;;10.95;3.70;;;8.70;99.90;;;;;;5028747;28;20025;-86
2024/02/07 07:39:38;;;;;;;7.35;3.53;;;8.70;99.90;;;;;;5025575;28;20021;-86
2024/02/07 07:42:04;;;;;;;12.45;3.47;;;8.70;99.90;;;;;;5029430;28;20033;-86
2024/02/07 07:44:29;;;;;;;7.18;3.67;;;8.70;99.90;;;;;;5033206;28;20029;-86
2024/02/07 07:46:55;;;;;;;8.60;3.30;;;8.80;99.90;;;;;;5045363;28;20061;-86
2024/02/07 07:49:21;;;;;;;18.90;4.95;;;8.70;99.90;;;;;;5021976;28;20049;-86
2024/02/07 07:51:46;;;;;;;9.13;3.63;;;8.80;99.90;;;;;;5033801;28;20057;-86
2024/02/07 07:54:12;;;;;;;9.07;3.70;;;8.70;99.90;;;;;;5024688;28;20065;-85
2024/02/07 07:56:37;;;;;;;6.63;3.33;;;8.70;99.90;;;;;;5030932;28;20024;-86
2024/02/07 07:59:03;;;;;;;11.27;3.53;;;8.70;99.90;;;;;;5025473;28;20037;-86
2024/02/07 08:01:29;;;;;;;6.95;3.30;;;8.70;99.90;;;;;;5031751;28;20027;-86
2024/02/07 08:03:54;;;;;;;8.65;3.95;;;8.70;99.90;;;;;;5029234;28;20383;-87
2024/02/07 08:06:21;;;;;;;9.23;3.83;;;8.70;99.90;;;;;;5030391;28;20471;-87
2024/02/07 08:08:47;;;;;;;12.13;4.32;;;8.70;99.90;;;;;;5033260;28;20078;-87
2024/02/07 08:11:13;;;;;;;8.02;3.50;;;8.70;99.90;;;;;;5031336;28;20028;-89
2024/02/07 08:13:39;;;;;;;9.55;4.45;;;8.70;99.90;;;;;;5032848;28;20059;-86
2024/02/07 08:16:06;;;;;;;6.93;4.00;;;8.70;99.90;;;;;;5036856;28;20021;-87
2024/02/07 08:18:32;;;;;;;11.60;3.45;;;8.80;99.90;;;;;;5022008;28;20172;-87
2024/02/07 08:20:57;;;;;;;9.23;3.47;;;8.80;99.90;;;;;;5025055;28;20048;-86
2024/02/07 08:23:24;;;;;;;7.38;4.10;;;8.80;99.90;;;;;;5030983;28;20060;-86
2024/02/07 08:25:49;;;;;;;11.25;4.45;;;8.90;99.90;;;;;;5034916;28;20016;-86
2024/02/07 08:28:15;;;;;;;7.05;3.67;;;8.90;99.90;;;;;;5024061;28;20025;-88
2024/02/07 08:30:40;;;;;;;6.20;3.55;;;8.90;99.90;;;;;;5027762;28;20013;-88
2024/02/07 08:33:06;;;;;;;8.10;3.65;;;8.90;99.90;;;;;;5028137;28;20095;-87
2024/02/07 08:35:32;;;;;;;10.05;3.28;;;8.90;99.90;;;;;;5026478;28;20474;-86
2024/02/07 08:37:58;;;;;;;9.68;4.07;;;8.90;99.90;;;;;;5036337;28;20026;-87
2024/02/07 08:40:33;;;;;;;8.70;3.72;;;8.90;99.90;;;;;;5025852;28;20057;-86
2024/02/07 08:43:00;;;;;;;7.28;3.50;;;8.90;99.90;;;;;;5027625;28;20035;-86
2024/02/07 08:45:25;;;;;;;13.70;3.70;;;8.80;99.90;;;;;;5027007;28;20067;-87
2024/02/07 08:47:51;;;;;;;11.07;4.03;;;8.80;99.90;;;;;;5024152;28;20983;-86
2024/02/07 08:50:17;;;;;;;7.15;3.50;;;8.80;99.90;;;;;;5031314;28;20036;-87
2024/02/07 08:52:43;;;;;;;12.88;3.95;;;8.80;99.90;;;;;;5055014;28;20020;-88
2024/02/07 08:55:09;;;;;;;12.32;3.95;;;8.80;99.90;;;;;;5032396;28;20180;-89
2024/02/07 08:57:41;;;;;;;13.07;3.78;;;8.80;99.90;;;;;;5037161;28;20022;-88
2024/02/07 09:00:10;;;;;;;8.57;3.17;;;8.80;99.90;;;;;;5032702;28;20041;-86
2024/02/07 09:02:36;;;;;;;8.75;3.92;;;8.80;99.90;;;;;;5029165;28;20113;-86
2024/02/07 09:05:04;;;;;;;13.15;4.38;;;8.70;99.90;;;;;;5033219;28;20104;-86
2024/02/07 09:07:33;;;;;;;5.63;3.33;;;8.80;99.90;;;;;;5027768;28;20014;-90
2024/02/07 09:09:59;;;;;;;12.75;4.05;;;8.80;99.90;;;;;;5023726;28;20010;-86
2024/02/07 09:12:24;;;;;;;22.65;4.57;;;8.80;99.90;;;;;;5034179;28;20020;-87
2024/02/07 09:14:50;;;;;;;8.10;3.70;;;8.80;99.90;;;;;;5030983;28;20034;-87
2024/02/07 09:17:16;;;;;;;10.10;3.55;;;8.80;99.90;;;;;;5020148;28;20025;-87
2024/02/07 09:19:41;;;;;;;10.38;3.13;;;8.80;99.90;;;;;;5020940;28;20026;-87
2024/02/07 09:22:08;;;;;;;13.63;4.32;;;8.80;99.90;;;;;;5034329;28;20040;-86
2024/02/07 09:24:33;;;;;;;8.27;3.42;;;8.80;99.90;;;;;;5028049;28;20048;-87
2024/02/07 09:26:59;;;;;;;9.30;3.47;;;8.70;99.90;;;;;;5047582;28;20095;-87
2024/02/07 09:29:25;;;;;;;8.85;3.97;;;8.70;99.90;;;;;;5025729;28;20013;-86
2024/02/07 09:31:50;;;;;;;11.88;3.80;;;8.70;99.90;;;;;;5052098;28;20034;-87
2024/02/07 09:34:16;;;;;;;10.48;4.32;;;8.70;99.90;;;;;;5021941;28;20567;-87
2024/02/07 09:36:42;;;;;;;8.60;3.47;;;8.70;99.90;;;;;;5029714;28;20049;-87
2024/02/07 09:39:07;;;;;;;7.88;3.53;;;8.70;99.90;;;;;;5027768;28;20032;-86
2024/02/07 09:41:33;;;;;;;14.63;4.63;;;8.70;99.90;;;;;;5021316;28;20053;-88
2024/02/07 09:44:03;;;;;;;8.98;3.92;;;8.80;99.90;;;;;;5030130;28;20396;-87
2024/02/07 09:46:36;;;;;;;7.63;3.40;;;8.80;99.90;;;;;;5029043;28;20022;-89
2024/02/07 09:49:04;;;;;;;15.65;3.35;;;8.80;99.90;;;;;;5027325;28;20017;-86
2024/02/07 09:51:30;;;;;;;8.75;3.67;;;8.80;99.90;;;;;;5025684;28;20013;-88
2024/02/07 09:53:56;;;;;;;9.80;3.85;;;8.80;99.90;;;;;;5033625;28;20118;-88
2024/02/07 09:56:22;;;;;;;8.80;3.85;;;8.80;99.90;;;;;;5029614;28;20096;-86
2024/02/07 09:58:48;;;;;;;10.20;3.65;;;8.80;99.90;;;;;;5035323;28;20124;-87
2024/02/07 10:01:15;;;;;;;10.85;4.53;;;8.90;99.90;;;;;;5022993;28;20116;-86
2024/02/07 10:03:45;;;;;;;6.88;3.55;;;8.90;99.90;;;;;;5035366;28;20056;-87
2024/02/07 10:06:12;;;;;;;5.85;3.33;;;9.00;99.90;;;;;;5031255;28;20049;-86
2024/02/07 10:08:38;;;;;;;16.15;3.72;;;9.00;99.90;;;;;;5039072;28;20075;-87
2024/02/07 10:11:04;;;;;;;7.38;3.47;;;9.10;99.90;;;;;;5027022;28;20036;-87
2024/02/07 10:13:30;;;;;;;9.23;3.58;;;9.00;99.90;;;;;;5033527;28;20025;-87
2024/02/07 10:15:57;;;;;;;8.27;3.22;;;9.00;99.90;;;;;;5026774;28;20086;-88
2024/02/07 10:18:22;;;;;;;8.90;3.30;;;9.00;99.90;;;;;;5030813;28;20096;-87
2024/02/07 10:20:52;;;;;;;9.55;3.70;;;9.00;99.90;;;;;;5037659;28;20100;-87
2024/02/07 10:23:18;;;;;;;8.27;4.03;;;9.00;99.90;;;;;;5027624;28;20025;-86
2024/02/07 10:25:51;;;;;;;7.75;3.35;;;9.00;99.90;;;;;;5031758;28;20029;-87
2024/02/07 10:28:17;;;;;;;14.27;4.30;;;9.00;99.90;;;;;;5035539;28;20017;-87
2024/02/07 10:30:43;;;;;;;11.77;3.63;;;9.00;99.90;;;;;;5034886;28;20013;-88
2024/02/07 10:33:09;;;;;;;6.25;3.67;;;9.10;99.90;;;;;;5030591;28;20109;-88
2024/02/07 10:35:34;;;;;;;8.70;3.22;;;9.00;99.90;;;;;;5038807;28;20040;-86
2024/02/07 10:38:00;;;;;;;7.47;3.95;;;9.10;99.90;;;;;;5026511;28;20028;-87
2024/02/07 10:40:29;;;;;;;8.45;3.25;;;9.00;99.90;;;;;;5033144;28;20096;-86
2024/02/07 10:42:56;;;;;;;8.00;3.38;;;9.10;99.90;;;;;;5034681;28;20014;-89
2024/02/07 10:45:22;;;;;;;7.82;3.55;;;9.00;99.90;;;;;;5041733;28;20017;-88
2024/02/07 10:47:48;;;;;;;5.85;3.08;;;9.00;99.90;;;;;;5032593;28;20363;-87
2024/02/07 10:50:16;;;;;;;11.13;4.28;;;9.10;99.90;;;;;;5030774;28;20017;-86
2024/02/07 10:52:42;;;;;;;10.25;4.00;;;9.10;99.90;;;;;;5032547;28;20266;-87
2024/02/07 10:55:10;;;;;;;5.93;3.45;;;9.10;99.90;;;;;;5033080;28;20025;-87
2024/02/07 10:57:39;;;;;;;6.65;3.28;;;9.10;99.90;;;;;;5029438;28;20020;-87
2024/02/07 11:00:06;;;;;;;7.57;3.17;;;9.10;99.90;;;;;;5038626;28;20067;-87
2024/02/07 11:02:32;;;;;;;9.40;3.63;;;9.20;99.90;;;;;;5029425;28;20025;-86
2024/02/07 11:05:02;;;;;;;8.02;3.25;;;9.30;99.90;;;;;;5029959;28;20462;-86
2024/02/07 11:07:28;;;;;;;5.33;3.40;;;9.30;99.90;;;;;;5038291;28;20018;-88
2024/02/07 11:09:54;;;;;;;11.80;4.22;;;9.30;99.90;;;;;;5039955;28;20014;-85
2024/02/07 11:12:20;;;;;;;9.68;3.03;;;9.30;99.90;;;;;;5023337;28;20044;-85
2024/02/07 11:14:47;;;;;;;11.48;4.13;;;9.30;99.90;;;;;;5028698;28;20550;-86
2024/02/07 11:17:16;;;;;;;10.23;3.33;;;9.30;99.90;;;;;;5028319;28;20430;-88
2024/02/07 11:19:43;;;;;;;8.68;3.72;;;9.30;99.90;;;;;;5047889;28;20029;-85
2024/02/07 11:22:20;;;;;;;5.63;3.22;;;9.30;99.90;;;;;;5029043;28;20068;-86
2024/02/07 11:24:48;;;;;;;10.98;3.33;;;9.30;99.90;;;;;;5049387;28;20487;-86
2024/02/07 11:27:14;;;;;;;14.75;3.67;;;9.30;99.90;;;;;;5031830;28;20034;-86
2024/02/07 11:29:43;;;;;;;8.60;3.85;;;9.60;99.90;;;;;;5030016;28;20026;-86
2024/02/07 11:32:09;;;;;;;11.88;4.43;;;9.70;99.90;;;;;;5026160;28;20022;-86
2024/02/07 11:34:41;;;;;;;6.65;3.53;;;9.70;99.90;;;;;;5026927;28;20026;-87
2024/02/07 11:37:11;;;;;;;5.60;3.15;;;9.70;99.90;;;;;;5030929;28;20026;-88
2024/02/07 11:39:42;;;;;;;9.82;3.60;;;9.80;99.90;;;;;;5027600;28;20029;-85
2024/02/07 11:42:18;;;;;;;11.00;3.78;;;9.90;99.90;;;;;;5038572;28;20026;-87
2024/02/07 11:45:00;;;;;;;5.13;3.05;;;9.90;99.90;;;;;;5017786;28;20026;-86
2024/02/07 11:47:27;;;;;;;8.40;3.00;;;9.80;99.90;;;;;;5043495;28;20026;-87
2024/02/07 11:49:57;;;;;;;7.22;3.38;;;9.70;99.90;;;;;;5027846;28;20051;-86
2024/02/07 11:52:31;;;;;;;8.90;4.28;;;9.60;99.90;;;;;;5027137;28;20018;-88
2024/02/07 11:55:07;;;;;;;7.22;3.42;;;9.50;99.90;;;;;;5027371;28;20395;-89
2024/02/07 11:57:33;;;;;;;8.00;3.85;;;9.40;99.90;;;;;;5019785;28;20041;-87
2024/02/07 12:00:04;;;;;;;7.05;3.10;;;9.40;99.90;;;;;;5027426;28;20140;-86
2024/02/07 12:02:30;;;;;;;8.15;3.60;;;9.40;99.90;;;;;;5028030;28;20400;-86
2024/02/07 12:04:57;;;;;;;5.18;3.17;;;9.30;99.90;;;;;;5030576;28;20022;-86
2024/02/07 12:07:22;;;;;;;5.90;3.05;;;9.30;99.90;;;;;;5030327;28;20053;-87
2024/02/07 12:09:48;;;;;;;9.95;3.08;;;9.30;99.90;;;;;;5030178;28;20068;-86
2024/02/07 12:12:15;;;;;;;4.68;2.88;;;9.30;99.90;;;;;;5024035;28;20025;-86
2024/02/07 12:14:41;;;;;;;6.78;3.47;;;9.30;99.90;;;;;;5029013;28;20017;-85
2024/02/07 12:17:07;;;;;;;8.32;3.22;;;9.30;99.90;;;;;;5033438;28;20514;-86
2024/02/07 12:19:35;;;;;;;10.00;2.95;;;9.30;99.90;;;;;;5029951;28;20096;-86
2024/02/07 12:22:04;;;;;;;7.00;3.20;;;9.30;99.90;;;;;;5044546;28;20155;-87
2024/02/07 12:24:31;;;;;;;5.70;2.90;;;9.20;99.90;;;;;;5031677;28;20495;-87
2024/02/07 12:27:13;;;;;;;6.10;2.53;;;9.20;99.90;;;;;;5032520;28;20517;-86
2024/02/07 12:29:39;;;;;;;5.60;2.40;;;9.20;99.90;;;;;;5026517;28;20087;-86
2024/02/07 12:32:05;;;;;;;6.38;2.72;;;9.20;99.90;;;;;;5018652;28;20609;-88
2024/02/07 12:34:31;;;;;;;9.93;3.05;;;9.20;99.90;;;;;;5029705;28;20041;-86
2024/02/07 12:36:57;;;;;;;6.07;2.65;;;9.20;99.90;;;;;;5031487;28;20020;-87
2024/02/07 12:39:23;;;;;;;5.80;2.78;;;9.20;99.90;;;;;;5030035;28;20065;-86
2024/02/07 12:41:49;;;;;;;10.25;2.78;;;9.20;99.90;;;;;;5026922;28;20034;-86
2024/02/07 12:44:15;;;;;;;6.38;3.15;;;9.20;99.90;;;;;;5030669;28;20491;-86
2024/02/07 12:46:42;;;;;;;9.15;3.15;;;9.20;99.90;;;;;;5021301;28;20032;-87
2024/02/07 12:49:08;;;;;;;7.10;2.88;;;9.20;99.90;;;;;;5027333;28;20179;-87
2024/02/07 12:51:34;;;;;;;6.70;2.85;;;9.20;99.90;;;;;;5023359;28;20499;-85
2024/02/07 12:54:00;;;;;;;5.38;2.80;;;9.20;99.90;;;;;;5029457;28;20035;-87
2024/02/07 12:56:26;;;;;;;9.13;3.10;;;9.20;99.90;;;;;;5022771;28;20101;-86
2024/02/07 12:58:51;;;;;;;7.25;3.33;;;9.20;99.90;;;;;;5020981;28;20520;-86
2024/02/07 13:01:21;;;;;;;5.78;2.92;;;9.20;99.90;;;;;;5022820;28;20543;-86
2024/02/07 13:03:46;;;;;;;6.25;3.03;;;9.20;99.90;;;;;;5029429;28;20048;-87
2024/02/07 13:06:13;;;;;;;5.03;2.45;;;9.20;99.90;;;;;;5025852;28;20017;-86
2024/02/07 13:08:38;;;;;;;9.30;2.72;;;9.20;99.90;;;;;;5025859;28;20088;-87
2024/02/07 13:11:04;;;;;;;7.38;3.42;;;9.20;99.90;;;;;;5031778;28;20108;-86
2024/02/07 13:13:30;;;;;;;4.82;2.72;;;9.20;99.90;;;;;;5029319;28;20041;-88
2024/02/07 13:15:58;;;;;;;4.43;3.13;;;9.20;99.90;;;;;;5030796;28;20033;-86
2024/02/07 13:18:23;;;;;;;11.90;3.42;;;9.10;99.90;;;;;;5027955;28;20028;-85
2024/02/07 13:20:49;;;;;;;5.47;2.22;;;9.10;99.90;;;;;;5027493;28;20021;-87
2024/02/07 13:23:16;;;;;;;7.43;3.08;;;9.10;99.90;;;;;;5035717;28;20025;-86
2024/02/07 13:25:43;;;;;;;5.82;3.03;;;9.20;99.90;;;;;;5030925;28;20490;-86
2024/02/07 13:28:09;;;;;;;7.45;3.25;;;9.10;99.90;;;;;;5023892;28;20029;-87
2024/02/07 13:30:35;;;;;;;6.57;3.25;;;9.10;99.90;;;;;;5024492;28;20556;-87
2024/02/07 13:33:00;;;;;;;10.65;2.92;;;9.10;99.90;;;;;;5030561;28;20030;-86
2024/02/07 13:35:27;;;;;;;9.02;2.92;;;9.10;99.90;;;;;;5035970;28;20013;-86
2024/02/07 13:37:58;;;;;;;7.20;3.10;;;9.20;99.90;;;;;;5028113;28;20026;-86
2024/02/07 13:40:25;;;;;;;6.40;3.00;;;9.20;99.90;;;;;;5020742;28;20040;-86
2024/02/07 13:42:51;;;;;;;5.05;2.70;;;9.20;99.90;;;;;;5028434;28;20424;-86
2024/02/07 13:45:19;;;;;;;11.30;2.75;;;9.10;99.90;;;;;;5043705;28;20056;-86
2024/02/07 13:47:45;;;;;;;7.80;3.03;;;9.10;99.90;;;;;;5023988;28;20022;-86
2024/02/07 13:50:11;;;;;;;6.43;3.40;;;9.10;99.90;;;;;;5033004;28;20100;-87
2024/02/07 13:52:37;;;;;;;11.52;4.20;;;9.10;99.90;;;;;;5025536;28;20041;-86
2024/02/07 13:55:03;;;;;;;12.55;3.95;;;9.20;99.90;;;;;;5039337;28;20368;-86